Aviation Digital Data Service (ADDS)

Output produced by METARs form (0231 UTC 21 September 2021)
found at http://aviationweather.gov/metar/data/
 
METAR text: KFNL 210156Z 07017G27KT 10SM BKN095 11/03 A3026 RMK AO2 PK WND 07032/0134 WSHFT 0113 PRESRR SLP222 T01110028
Conditions at: KFNL (FT COLLINS/LOVEL, CO, US) observed 0156 UTC 21 September 2021
Temperature: 11.1°C (52°F)
Dewpoint: 2.8°C (37°F) [RH = 57%]
Pressure (altimeter): 30.26 inches Hg (1024.8 mb)
[Sea-level pressure: 1022.2 mb]
Winds: from the ENE (70 degrees) at 20 MPH (17 knots; 8.7 m/s)
gusting to 31 MPH (27 knots; 13.9 m/s)
Visibility: 10 or more miles (16+ km)
Ceiling: 9500 feet AGL
Clouds: broken clouds at 9500 feet AGL
Weather: no significant weather observed at this time

METAR text: KFNL 210133Z 06024G31KT 10SM OVC095 12/03 A3022 RMK AO2 PK WND 06031/0133 WSHFT 0113
Conditions at: KFNL (FT COLLINS/LOVEL, CO, US) observed 0133 UTC 21 September 2021
Temperature: 12.0°C (54°F)
Dewpoint: 3.0°C (37°F) [RH = 54%]
Pressure (altimeter): 30.22 inches Hg (1023.5 mb)
Winds: from the ENE (60 degrees) at 28 MPH (24 knots; 12.3 m/s)
gusting to 36 MPH (31 knots; 15.9 m/s)
Visibility: 10 or more miles (16+ km)
Ceiling: 9500 feet AGL
Clouds: overcast cloud deck at 9500 feet AGL
Weather: no significant weather observed at this time